Time;durP1;ratioP1;P1;durP2;ratioP2;P2;SDS_P1;SDS_P2;PMS_P1;PMS_P2;Temp;Humidity;BMP_temperature;BMP_pressure;BME280_temperature;BME280_humidity;BME280_pressure;Samples;Min_cycle;Max_cycle;Signal;HPM_P1;HPM_P2
2022/07/11 00:02:08;;;;;;;4.63;1.50;;;18.00;99.90;;;;;;4955224;28;20176;-57
2022/07/11 00:04:35;;;;;;;4.30;1.60;;;17.90;99.90;;;;;;4954902;28;20199;-57
2022/07/11 00:07:02;;;;;;;3.72;1.27;;;17.90;99.90;;;;;;4954072;28;20208;-57
2022/07/11 00:09:28;;;;;;;3.90;1.70;;;17.80;99.90;;;;;;4953418;29;20724;-58
2022/07/11 00:11:55;;;;;;;2.53;1.27;;;17.70;99.90;;;;;;4954509;28;20251;-57
2022/07/11 00:14:21;;;;;;;2.85;1.48;;;17.60;99.90;;;;;;4954550;28;20329;-57
2022/07/11 00:16:48;;;;;;;4.38;1.30;;;17.70;99.90;;;;;;4954591;28;20179;-57
2022/07/11 00:19:14;;;;;;;4.07;1.10;;;17.60;99.90;;;;;;4954402;28;20309;-57
2022/07/11 00:21:40;;;;;;;2.17;1.40;;;17.50;99.90;;;;;;4954433;28;20248;-57
2022/07/11 00:24:07;;;;;;;3.88;1.42;;;17.40;99.90;;;;;;4954434;28;20698;-57
2022/07/11 00:26:34;;;;;;;4.97;1.73;;;17.30;99.90;;;;;;4954353;28;20208;-57
2022/07/11 00:29:00;;;;;;;2.10;1.40;;;17.20;99.90;;;;;;4954715;28;20173;-57
2022/07/11 00:31:26;;;;;;;4.05;1.42;;;17.20;99.90;;;;;;4954338;28;20176;-57
2022/07/11 00:33:51;;;;;;;1.65;1.30;;;17.30;99.90;;;;;;4954270;28;20706;-57
2022/07/11 00:36:17;;;;;;;1.52;1.30;;;17.30;99.90;;;;;;4954265;28;20172;-57
2022/07/11 00:38:43;;;;;;;3.67;1.50;;;17.20;99.90;;;;;;4954115;28;20624;-57
2022/07/11 00:41:10;;;;;;;2.13;1.60;;;17.20;99.90;;;;;;4954144;28;20186;-57
2022/07/11 00:43:38;;;;;;;4.50;1.30;;;17.20;99.90;;;;;;4954240;28;20181;-57
2022/07/11 00:46:06;;;;;;;5.85;1.88;;;17.20;99.90;;;;;;4954068;28;20532;-57
2022/07/11 00:48:32;;;;;;;5.22;1.45;;;17.30;99.90;;;;;;4954390;28;20176;-57
2022/07/11 00:50:59;;;;;;;2.13;1.42;;;17.20;99.90;;;;;;4954183;28;20180;-56
2022/07/11 00:53:26;;;;;;;1.30;1.20;;;17.20;99.90;;;;;;4953889;28;20335;-57
2022/07/11 00:55:53;;;;;;;2.58;1.50;;;17.20;99.90;;;;;;4953796;28;20208;-57
2022/07/11 00:58:19;;;;;;;3.30;1.48;;;13.90;99.90;;;;;;4953717;28;20169;-57
2022/07/11 01:00:45;;;;;;;2.45;1.45;;;17.10;99.90;;;;;;4953846;28;20183;-57
2022/07/11 01:03:11;;;;;;;5.30;1.50;;;17.10;99.90;;;;;;4952411;29;20188;-57
2022/07/11 01:05:37;;;;;;;5.80;1.80;;;17.10;99.90;;;;;;4953791;28;20531;-57
2022/07/11 01:08:03;;;;;;;3.05;1.50;;;17.10;99.90;;;;;;4953619;28;20173;-57
2022/07/11 01:10:29;;;;;;;2.95;1.30;;;17.10;99.90;;;;;;4953503;28;20216;-57
2022/07/11 01:12:55;;;;;;;3.92;1.40;;;17.10;99.90;;;;;;4953717;28;20272;-57
2022/07/11 01:15:21;;;;;;;2.28;1.48;;;17.10;99.90;;;;;;4953613;28;20639;-57
2022/07/11 01:17:47;;;;;;;2.45;1.48;;;17.10;99.90;;;;;;4953430;28;20180;-57
2022/07/11 01:20:12;;;;;;;5.40;1.48;;;17.00;99.90;;;;;;4953529;28;20216;-57
2022/07/11 01:22:51;;;;;;;2.95;1.52;;;17.10;99.90;;;;;;4952088;29;20576;-57
2022/07/11 01:25:30;;;;;;;2.10;1.60;;;17.00;99.90;;;;;;4953361;28;20180;-57
2022/07/11 01:27:58;;;;;;;2.28;1.40;;;17.00;99.90;;;;;;4953270;28;20639;-58
2022/07/11 01:30:25;;;;;;;3.13;1.65;;;16.90;99.90;;;;;;4953211;29;20180;-57
2022/07/11 01:32:52;;;;;;;2.65;1.75;;;16.80;99.90;;;;;;4953273;28;20177;-57
2022/07/11 01:35:19;;;;;;;3.72;2.05;;;16.80;99.90;;;;;;4953203;28;20259;-57
2022/07/11 01:37:45;;;;;;;6.07;2.00;;;16.70;99.90;;;;;;4953299;28;20188;-57
2022/07/11 01:40:11;;;;;;;3.17;1.63;;;16.60;99.90;;;;;;4953176;28;20587;-57
2022/07/11 01:42:37;;;;;;;2.60;1.60;;;16.60;99.90;;;;;;4953070;28;20651;-59
2022/07/11 01:45:03;;;;;;;3.42;1.63;;;16.60;99.90;;;;;;4952986;28;20184;-57
2022/07/11 01:47:29;;;;;;;2.67;1.90;;;16.70;99.90;;;;;;4953002;28;20165;-57
2022/07/11 01:49:55;;;;;;;2.85;1.77;;;16.60;99.90;;;;;;4952959;28;20195;-57
2022/07/11 01:52:21;;;;;;;3.33;1.85;;;16.60;99.90;;;;;;4953210;28;20181;-58
2022/07/11 01:54:47;;;;;;;2.78;1.65;;;16.60;99.90;;;;;;4952973;28;20164;-58
2022/07/11 01:57:14;;;;;;;6.80;1.90;;;16.60;99.90;;;;;;4951581;29;20181;-57
2022/07/11 01:59:39;;;;;;;3.85;1.80;;;16.60;99.90;;;;;;4952770;28;20220;-57
2022/07/11 02:02:05;;;;;;;3.15;1.92;;;16.60;99.90;;;;;;4952891;28;20181;-57
2022/07/11 02:04:31;;;;;;;6.97;1.85;;;16.70;99.90;;;;;;4952924;28;20176;-57
2022/07/11 02:06:57;;;;;;;4.03;1.70;;;16.70;99.90;;;;;;4952831;28;20531;-57
2022/07/11 02:09:23;;;;;;;4.57;1.73;;;16.70;99.90;;;;;;4952863;28;20177;-57
2022/07/11 02:11:49;;;;;;;6.18;1.70;;;16.70;99.90;;;;;;4952655;28;20582;-57
2022/07/11 02:14:15;;;;;;;4.22;1.77;;;16.80;99.90;;;;;;4952813;28;20599;-57
2022/07/11 02:16:41;;;;;;;4.03;1.73;;;16.70;99.90;;;;;;4952805;28;20200;-58
2022/07/11 02:19:07;;;;;;;4.55;1.90;;;16.80;99.90;;;;;;4952705;28;20256;-57
2022/07/11 02:21:34;;;;;;;3.72;1.77;;;16.70;99.90;;;;;;4952799;28;20206;-57
2022/07/11 02:23:59;;;;;;;4.13;1.95;;;16.60;99.90;;;;;;4952708;28;20176;-57
2022/07/11 02:26:25;;;;;;;3.15;1.60;;;16.50;99.90;;;;;;4952792;28;20179;-57
2022/07/11 02:28:52;;;;;;;3.53;1.90;;;16.50;99.90;;;;;;4952782;28;20532;-57
2022/07/11 02:31:17;;;;;;;3.13;1.80;;;16.30;99.90;;;;;;4956469;28;20275;-57
2022/07/11 02:33:43;;;;;;;4.03;1.80;;;16.20;99.90;;;;;;4956503;28;20172;-57
2022/07/11 02:36:10;;;;;;;3.58;1.55;;;16.10;99.90;;;;;;4956580;28;20204;-57
2022/07/11 02:38:36;;;;;;;2.55;1.80;;;16.00;99.90;;;;;;4956209;28;20203;-57
2022/07/11 02:41:02;;;;;;;4.35;1.88;;;16.10;99.90;;;;;;4956428;28;20173;-57
2022/07/11 02:43:28;;;;;;;5.05;1.60;;;16.00;99.90;;;;;;4956270;28;20662;-57
2022/07/11 02:45:55;;;;;;;5.30;2.17;;;16.00;99.90;;;;;;4956369;28;20176;-57
2022/07/11 02:48:21;;;;;;;3.42;1.90;;;16.00;99.90;;;;;;4956163;28;20184;-57
2022/07/11 02:50:47;;;;;;;2.65;1.60;;;16.00;99.90;;;;;;4956240;28;20227;-57
2022/07/11 02:53:13;;;;;;;7.70;1.98;;;16.00;99.90;;;;;;4956174;28;20264;-56
2022/07/11 02:55:39;;;;;;;3.28;1.63;;;16.10;99.90;;;;;;4955906;28;20223;-58
2022/07/11 02:58:05;;;;;;;3.33;1.60;;;16.00;99.90;;;;;;4956015;28;20672;-57
2022/07/11 03:00:31;;;;;;;4.47;1.90;;;16.00;99.90;;;;;;4955905;28;20247;-57
2022/07/11 03:02:57;;;;;;;2.83;1.77;;;16.00;99.90;;;;;;4955874;28;20169;-56
2022/07/11 03:05:23;;;;;;;6.25;1.92;;;16.00;99.90;;;;;;4955877;28;20612;-57
2022/07/11 03:07:49;;;;;;;3.97;1.77;;;15.90;99.90;;;;;;4955916;28;20165;-57
2022/07/11 03:10:15;;;;;;;4.18;2.00;;;15.60;99.90;;;;;;4954441;29;20267;-57
2022/07/11 03:12:41;;;;;;;4.97;2.25;;;15.70;99.90;;;;;;4954532;29;20180;-57
2022/07/11 03:15:08;;;;;;;5.68;2.10;;;15.80;99.90;;;;;;4955700;28;20173;-57
2022/07/11 03:17:38;;;;;;;6.18;2.03;;;15.80;99.90;;;;;;4955821;28;20195;-57
2022/07/11 03:20:05;;;;;;;5.70;2.28;;;15.80;99.90;;;;;;4955557;28;20208;-57
2022/07/11 03:22:31;;;;;;;5.50;2.20;;;16.00;99.90;;;;;;4955671;28;20698;-57
2022/07/11 03:24:57;;;;;;;5.22;2.10;;;15.90;99.90;;;;;;4955524;28;20268;-57
2022/07/11 03:27:41;;;;;;;3.20;1.80;;;15.90;99.90;;;;;;4955326;28;20161;-57
2022/07/11 03:30:07;;;;;;;5.35;2.15;;;15.80;99.90;;;;;;4955381;28;20180;-57
2022/07/11 03:32:33;;;;;;;4.25;1.85;;;15.60;99.90;;;;;;4955764;28;20165;-57
2022/07/11 03:37:42;;;;;;;4.57;1.88;;;15.60;99.90;;;;;;4955390;29;20255;-56
2022/07/11 03:40:09;;;;;;;6.18;2.10;;;15.50;99.90;;;;;;4955157;28;20251;-57
2022/07/11 03:42:35;;;;;;;3.67;2.00;;;15.50;99.90;;;;;;4954361;28;20179;-57
2022/07/11 03:45:01;;;;;;;3.67;1.88;;;15.50;99.90;;;;;;4955253;28;20168;-56
2022/07/11 03:47:27;;;;;;;2.97;2.20;;;15.60;99.90;;;;;;4955078;28;20639;-57
2022/07/11 03:49:52;;;;;;;5.90;2.20;;;15.60;99.90;;;;;;4955163;28;20574;-57
2022/07/11 03:52:18;;;;;;;7.75;2.55;;;15.50;99.90;;;;;;4955088;28;20181;-57
2022/07/11 03:54:45;;;;;;;4.10;2.30;;;15.50;99.90;;;;;;4954964;28;20173;-57
2022/07/11 03:57:11;;;;;;;2.92;1.92;;;15.50;99.90;;;;;;4954973;28;20249;-57
2022/07/11 03:59:36;;;;;;;3.15;2.10;;;15.50;99.90;;;;;;4954872;28;20212;-57
2022/07/11 04:02:02;;;;;;;5.38;2.63;;;15.50;99.90;;;;;;4954957;28;20165;-58
2022/07/11 04:04:28;;;;;;;6.75;1.77;;;15.50;99.90;;;;;;4954815;28;20228;-57
2022/07/11 04:06:54;;;;;;;4.40;1.92;;;15.50;99.90;;;;;;4955041;28;20189;-59
2022/07/11 04:09:20;;;;;;;8.40;2.47;;;15.50;99.90;;;;;;4954847;28;20279;-57
2022/07/11 04:11:45;;;;;;;6.82;2.15;;;15.50;99.90;;;;;;4954643;28;20639;-57
2022/07/11 04:14:11;;;;;;;4.90;2.10;;;15.60;99.90;;;;;;4954578;28;20169;-57
2022/07/11 04:16:37;;;;;;;3.60;2.10;;;15.50;99.90;;;;;;4954604;28;20662;-57
2022/07/11 04:19:04;;;;;;;5.30;2.00;;;15.50;99.90;;;;;;4954469;28;20200;-57
2022/07/11 04:21:30;;;;;;;4.45;2.10;;;15.50;99.90;;;;;;4954519;28;20217;-57
2022/07/11 04:23:55;;;;;;;4.43;2.20;;;15.40;99.90;;;;;;4954933;28;20173;-57
2022/07/11 04:26:21;;;;;;;3.08;2.10;;;15.40;99.90;;;;;;4954587;28;20632;-57
2022/07/11 04:28:47;;;;;;;3.17;2.22;;;15.40;99.90;;;;;;4954436;28;20635;-57
2022/07/11 04:31:13;;;;;;;8.35;2.33;;;15.40;99.90;;;;;;4954483;28;20177;-57
2022/07/11 04:33:39;;;;;;;8.93;2.63;;;15.30;99.90;;;;;;4954280;28;20541;-57
2022/07/11 04:36:05;;;;;;;3.40;2.22;;;15.40;99.90;;;;;;4954413;28;20651;-57
2022/07/11 04:38:31;;;;;;;3.13;2.10;;;15.40;99.90;;;;;;4954173;28;20254;-56
2022/07/11 04:40:57;;;;;;;3.85;2.30;;;15.50;99.90;;;;;;4954183;28;20209;-57
2022/07/11 04:43:22;;;;;;;6.05;2.03;;;15.20;99.90;;;;;;4954158;28;20176;-57
2022/07/11 04:45:48;;;;;;;6.20;2.13;;;15.40;99.90;;;;;;4954071;28;20200;-57
2022/07/11 04:48:14;;;;;;;4.53;2.00;;;15.40;99.90;;;;;;4953908;28;20172;-57
2022/07/11 04:50:44;;;;;;;3.78;2.13;;;15.40;99.90;;;;;;4953976;28;20212;-57
2022/07/11 04:53:11;;;;;;;7.28;2.30;;;15.30;99.90;;;;;;4954127;28;20250;-57
2022/07/11 04:55:40;;;;;;;5.82;2.50;;;15.30;99.90;;;;;;4953835;28;20628;-57
2022/07/11 04:58:08;;;;;;;4.85;2.53;;;15.40;99.90;;;;;;4953879;28;20184;-57
2022/07/11 05:00:35;;;;;;;9.48;2.67;;;15.50;99.90;;;;;;4953633;29;20774;-56
2022/07/11 05:03:01;;;;;;;4.78;2.45;;;15.50;99.90;;;;;;4953704;28;20173;-57
2022/07/11 05:05:29;;;;;;;8.85;2.53;;;15.60;99.90;;;;;;4953765;28;20168;-57
2022/07/11 05:07:55;;;;;;;4.65;2.53;;;15.70;99.90;;;;;;4953859;28;20173;-57
2022/07/11 05:10:20;;;;;;;4.93;2.35;;;15.70;99.90;;;;;;4953525;28;20565;-57
2022/07/11 05:12:46;;;;;;;4.97;2.53;;;15.80;99.90;;;;;;4953561;28;20707;-57
2022/07/11 05:15:12;;;;;;;5.65;2.33;;;15.90;99.90;;;;;;4953524;28;20560;-56
2022/07/11 05:17:38;;;;;;;6.93;2.92;;;15.90;99.90;;;;;;4953575;28;20181;-57
2022/07/11 05:20:04;;;;;;;3.67;2.20;;;16.00;99.90;;;;;;4953477;28;20356;-57
2022/07/11 05:22:30;;;;;;;8.18;2.58;;;16.00;99.90;;;;;;4953571;28;20176;-57
2022/07/11 05:24:56;;;;;;;4.90;2.70;;;16.10;99.90;;;;;;4953361;28;20168;-57
2022/07/11 05:27:22;;;;;;;13.93;2.88;;;16.20;99.90;;;;;;4953261;28;20658;-56
2022/07/11 05:29:48;;;;;;;8.07;2.70;;;16.20;99.90;;;;;;4953272;28;20206;-56
2022/07/11 05:32:13;;;;;;;5.57;2.60;;;16.20;99.90;;;;;;4953299;28;20172;-57
2022/07/11 05:34:39;;;;;;;7.03;2.33;;;16.20;99.90;;;;;;4953384;28;20187;-57
2022/07/11 05:37:06;;;;;;;5.40;2.47;;;16.30;99.90;;;;;;4953276;28;20529;-57
2022/07/11 05:39:31;;;;;;;8.50;2.28;;;17.60;99.90;;;;;;4953104;28;20200;-57
2022/07/11 05:41:57;;;;;;;5.57;2.70;;;16.30;99.90;;;;;;4953255;28;20181;-57
2022/07/11 05:44:23;;;;;;;6.63;2.40;;;16.40;99.90;;;;;;4953452;28;20169;-57
2022/07/11 05:46:49;;;;;;;9.40;2.75;;;16.40;99.90;;;;;;4953008;28;20208;-57
2022/07/11 05:49:16;;;;;;;9.07;2.58;;;16.50;99.90;;;;;;4953280;28;20204;-57
2022/07/11 05:51:41;;;;;;;5.20;2.15;;;16.60;99.90;;;;;;4953023;28;20592;-57
2022/07/11 05:54:07;;;;;;;11.70;3.10;;;16.60;99.90;;;;;;4952885;28;20268;-57
2022/07/11 05:56:33;;;;;;;7.05;2.90;;;16.60;99.90;;;;;;4953022;28;20596;-57
2022/07/11 05:58:59;;;;;;;5.72;2.92;;;16.60;99.90;;;;;;4952827;28;20687;-56
2022/07/11 06:01:26;;;;;;;8.52;3.00;;;16.70;99.90;;;;;;4953045;28;20529;-57
2022/07/11 06:03:52;;;;;;;4.63;2.30;;;16.70;99.90;;;;;;4951974;28;20187;-57
2022/07/11 06:06:18;;;;;;;5.03;2.85;;;16.70;99.90;;;;;;4952537;28;20180;-56
2022/07/11 06:08:44;;;;;;;6.20;2.70;;;16.80;99.90;;;;;;4952818;28;20176;-56
2022/07/11 06:11:12;;;;;;;6.18;2.53;;;16.80;99.90;;;;;;4952612;28;20228;-56
2022/07/11 06:13:39;;;;;;;9.52;2.25;;;17.00;99.90;;;;;;4952749;28;20169;-57
2022/07/11 06:16:06;;;;;;;7.45;2.53;;;17.10;99.90;;;;;;4952825;28;20176;-57
2022/07/11 06:18:33;;;;;;;3.58;1.95;;;17.10;99.90;;;;;;4952608;28;20181;-56
2022/07/11 06:20:58;;;;;;;7.53;2.85;;;17.20;99.90;;;;;;4952597;28;20179;-57
2022/07/11 06:23:24;;;;;;;7.10;2.35;;;17.30;99.90;;;;;;4952604;28;20199;-57
2022/07/11 06:25:50;;;;;;;6.28;2.30;;;17.40;99.90;;;;;;4952713;28;20539;-56
2022/07/11 06:28:16;;;;;;;4.43;2.45;;;17.40;99.90;;;;;;4952592;28;20173;-56
2022/07/11 06:30:42;;;;;;;6.53;2.22;;;17.60;99.90;;;;;;4952816;28;20260;-58
2022/07/11 06:33:08;;;;;;;5.43;2.47;;;17.70;99.90;;;;;;4952611;28;20663;-57
2022/07/11 06:35:34;;;;;;;9.02;2.83;;;17.80;99.90;;;;;;4952681;28;20247;-57
2022/07/11 06:38:00;;;;;;;8.10;2.95;;;17.90;99.90;;;;;;4952533;28;20184;-57
2022/07/11 06:40:26;;;;;;;5.95;2.85;;;18.00;99.90;;;;;;4952406;28;20231;-56
2022/07/11 06:42:52;;;;;;;16.30;2.80;;;18.20;99.90;;;;;;4950994;29;20543;-56
2022/07/11 06:45:18;;;;;;;12.73;3.28;;;18.30;99.90;;;;;;4952325;28;20226;-57
2022/07/11 06:47:43;;;;;;;14.98;3.65;;;18.30;99.90;;;;;;4951063;29;20597;-56
2022/07/11 06:50:10;;;;;;;11.25;3.00;;;18.50;99.90;;;;;;4952359;28;20263;-56
2022/07/11 06:52:36;;;;;;;7.57;2.78;;;18.60;99.90;;;;;;4952399;28;20244;-57
2022/07/11 06:55:02;;;;;;;11.15;2.60;;;18.70;99.90;;;;;;4951215;29;20174;-58
2022/07/11 06:57:27;;;;;;;7.63;2.42;;;18.80;99.90;;;;;;4952324;28;20184;-57
2022/07/11 06:59:53;;;;;;;9.65;2.63;;;18.90;99.90;;;;;;4952238;28;20259;-57
2022/07/11 07:02:19;;;;;;;8.13;2.45;;;19.00;99.90;;;;;;4952188;28;20239;-55
2022/07/11 07:04:45;;;;;;;6.75;2.60;;;19.00;99.90;;;;;;4952336;28;20271;-56
2022/07/11 07:07:11;;;;;;;4.50;2.10;;;19.10;99.90;;;;;;4952355;28;20687;-57
2022/07/11 07:09:37;;;;;;;13.00;2.90;;;19.20;99.90;;;;;;4952204;28;20537;-57
2022/07/11 07:12:03;;;;;;;7.47;2.60;;;19.40;99.90;;;;;;4951868;28;20228;-57
2022/07/11 07:14:29;;;;;;;9.05;2.17;;;19.50;99.90;;;;;;4952236;28;20270;-57
2022/07/11 07:16:55;;;;;;;9.85;2.13;;;19.60;99.90;;;;;;4955117;28;20218;-57
2022/07/11 07:19:20;;;;;;;7.90;1.83;;;19.70;99.90;;;;;;4955485;28;20691;-57
2022/07/11 07:21:47;;;;;;;5.25;2.00;;;19.70;99.90;;;;;;4955442;28;20235;-57
2022/07/11 07:24:13;;;;;;;4.80;2.00;;;19.90;99.90;;;;;;4955433;28;20177;-57
2022/07/11 07:26:39;;;;;;;5.38;2.03;;;20.00;99.90;;;;;;4955468;28;20204;-58
2022/07/11 07:29:05;;;;;;;3.75;1.85;;;20.10;99.90;;;;;;4955364;28;20169;-57
2022/07/11 07:31:31;;;;;;;5.40;1.60;;;20.20;99.90;;;;;;4955314;28;20185;-57
2022/07/11 07:33:57;;;;;;;6.00;1.90;;;20.30;99.90;;;;;;4955249;28;20183;-57
2022/07/11 07:36:23;;;;;;;8.48;1.90;;;20.50;99.90;;;;;;4955332;28;20195;-57
2022/07/11 07:38:49;;;;;;;7.32;2.00;;;20.50;99.90;;;;;;4955152;28;20275;-57
2022/07/11 07:41:16;;;;;;;9.10;2.03;;;20.50;99.90;;;;;;4955139;28;20252;-57
2022/07/11 07:43:42;;;;;;;12.15;2.28;;;20.60;99.90;;;;;;4955095;28;20200;-58
2022/07/11 07:46:11;;;;;;;4.88;2.15;;;20.80;99.90;;;;;;4955093;28;20176;-57
2022/07/11 07:48:40;;;;;;;6.90;2.40;;;20.80;99.90;;;;;;4955014;28;20169;-57
2022/07/11 07:51:06;;;;;;;6.10;1.83;;;20.90;99.90;;;;;;4955037;28;20251;-57
2022/07/11 07:53:32;;;;;;;6.65;1.70;;;21.00;99.90;;;;;;4954836;28;20177;-57
2022/07/11 07:55:58;;;;;;;5.43;2.08;;;21.20;99.90;;;;;;4954835;28;20234;-57
2022/07/11 07:58:24;;;;;;;7.93;2.20;;;21.30;99.90;;;;;;4954900;28;20168;-57
2022/07/11 08:03:34;;;;;;;7.82;2.00;;;21.50;99.90;;;;;;4954804;29;20175;-57
2022/07/11 08:06:00;;;;;;;8.63;1.83;;;21.60;99.90;;;;;;4954164;28;20347;-57
2022/07/11 08:08:26;;;;;;;6.95;2.40;;;21.70;99.90;;;;;;4954700;28;20654;-57
2022/07/11 08:10:52;;;;;;;5.80;2.00;;;21.90;99.90;;;;;;4952452;28;20227;-58
2022/07/11 08:13:19;;;;;;;4.40;1.98;;;22.00;99.90;;;;;;4954728;28;20651;-58
2022/07/11 08:15:46;;;;;;;4.97;1.92;;;22.10;99.90;;;;;;4954529;28;20196;-57
2022/07/11 08:18:12;;;;;;;5.20;1.92;;;22.30;99.90;;;;;;4954648;28;20181;-57
2022/07/11 08:20:38;;;;;;;4.85;1.83;;;22.40;99.90;;;;;;4954388;28;20303;-57
2022/07/11 08:23:04;;;;;;;6.25;2.05;;;22.60;99.90;;;;;;4954439;28;20243;-57
2022/07/11 08:25:31;;;;;;;5.53;1.83;;;22.70;99.90;;;;;;4954639;29;20264;-57
2022/07/11 08:27:57;;;;;;;6.30;2.08;;;22.90;99.90;;;;;;4953753;28;20172;-57
2022/07/11 08:30:23;;;;;;;3.55;1.60;;;22.90;99.90;;;;;;4954382;28;20620;-57
2022/07/11 08:32:48;;;;;;;5.80;1.45;;;22.90;99.90;;;;;;4954294;29;20173;-58
2022/07/11 08:35:15;;;;;;;3.10;1.60;;;23.10;99.90;;;;;;4954189;28;20176;-57
2022/07/11 08:37:41;;;;;;;10.50;1.80;;;23.50;99.90;;;;;;4954210;28;20227;-57
2022/07/11 08:40:08;;;;;;;5.50;1.88;;;23.60;99.90;;;;;;4954105;28;20222;-57
2022/07/11 08:42:45;;;;;;;6.55;2.05;;;23.80;99.90;;;;;;4953984;29;20201;-57
2022/07/11 08:45:14;;;;;;;4.72;1.63;;;24.00;99.90;;;;;;4954084;28;20235;-57
2022/07/11 08:47:41;;;;;;;2.85;1.45;;;24.40;99.90;;;;;;4954022;28;20183;-57
2022/07/11 08:50:09;;;;;;;4.55;1.20;;;24.80;99.90;;;;;;4954056;28;20231;-58
2022/07/11 08:52:35;;;;;;;5.50;1.38;;;25.00;99.90;;;;;;4953948;28;20183;-57
2022/07/11 08:55:06;;;;;;;5.25;1.65;;;25.30;99.90;;;;;;4953814;28;20164;-59
2022/07/11 08:57:35;;;;;;;4.93;1.45;;;25.50;99.90;;;;;;4953854;28;20205;-57
2022/07/11 09:00:04;;;;;;;2.33;1.60;;;25.60;99.90;;;;;;4953718;28;20263;-57
2022/07/11 09:02:32;;;;;;;3.30;1.13;;;26.00;99.90;;;;;;4953670;28;20177;-57
2022/07/11 09:04:58;;;;;;;3.00;1.40;;;26.20;99.90;;;;;;4953895;28;20567;-57
2022/07/11 09:07:24;;;;;;;2.42;1.00;;;26.40;99.90;;;;;;4953705;28;20173;-57
2022/07/11 09:09:50;;;;;;;4.63;1.10;;;26.50;99.90;;;;;;4953596;28;20695;-57
2022/07/11 09:12:16;;;;;;;2.50;1.20;;;26.40;99.90;;;;;;4953434;28;20259;-57
2022/07/11 09:14:51;;;;;;;6.55;1.20;;;26.60;99.90;;;;;;4953300;28;20656;-57
2022/07/11 09:17:28;;;;;;;2.13;1.23;;;27.00;99.90;;;;;;4953256;28;20175;-58
2022/07/11 09:19:54;;;;;;;7.90;1.50;;;27.00;99.90;;;;;;4953384;28;20211;-57
2022/07/11 09:25:31;;;;;;;2.40;1.30;;;27.00;99.90;;;;;;4953522;29;20191;-57
2022/07/11 09:28:05;;;;;;;4.85;1.60;;;27.00;99.90;;;;;;4953388;28;20183;-57
2022/07/11 09:30:39;;;;;;;5.13;1.30;;;26.80;99.90;;;;;;4953156;28;20596;-57
2022/07/11 09:33:07;;;;;;;5.57;1.40;;;27.10;99.90;;;;;;4953178;28;20593;-57
2022/07/11 09:35:35;;;;;;;2.00;1.30;;;27.20;99.90;;;;;;4953252;28;20190;-57
2022/07/11 09:38:09;;;;;;;2.92;1.30;;;27.50;99.90;;;;;;4953024;28;20553;-57
2022/07/11 09:40:36;;;;;;;3.97;1.40;;;27.80;99.90;;;;;;4952496;28;20299;-57
2022/07/11 09:43:04;;;;;;;4.80;1.35;;;27.90;99.90;;;;;;4953083;28;20651;-57
2022/07/11 09:45:32;;;;;;;3.65;1.27;;;28.10;99.90;;;;;;4953165;28;20215;-57
2022/07/11 09:48:01;;;;;;;3.05;1.30;;;28.10;99.90;;;;;;4952994;28;20165;-57
2022/07/11 09:50:28;;;;;;;3.88;1.05;;;28.10;99.90;;;;;;4952958;28;20201;-57
2022/07/11 09:53:09;;;;;;;2.85;1.10;;;28.50;99.90;;;;;;4952966;28;20169;-57
2022/07/11 09:55:46;;;;;;;1.95;1.20;;;28.60;99.90;;;;;;4953016;28;20255;-57
2022/07/11 09:58:14;;;;;;;3.90;1.75;;;28.80;99.90;;;;;;4952863;28;20169;-57
2022/07/11 10:00:41;;;;;;;1.85;1.17;;;28.70;99.90;;;;;;4952648;28;20216;-58
2022/07/11 10:03:08;;;;;;;2.10;1.20;;;29.10;99.90;;;;;;4953089;28;20177;-58
2022/07/11 10:05:34;;;;;;;3.85;1.35;;;29.60;99.90;;;;;;4952760;28;20702;-58
2022/07/11 10:08:02;;;;;;;2.20;1.10;;;29.50;99.90;;;;;;4952714;28;20651;-58
2022/07/11 10:10:30;;;;;;;4.80;1.30;;;29.10;99.90;;;;;;4952728;28;20180;-58
2022/07/11 10:12:56;;;;;;;3.13;1.35;;;29.20;99.90;;;;;;4952909;28;20181;-58
2022/07/11 10:15:34;;;;;;;2.90;1.20;;;29.30;99.90;;;;;;4952597;28;20184;-58
2022/07/11 10:18:02;;;;;;;2.53;1.25;;;29.60;99.90;;;;;;4952461;28;20172;-57
2022/07/11 10:20:41;;;;;;;3.42;1.13;;;29.10;99.90;;;;;;4952565;28;20295;-57
2022/07/11 10:23:23;;;;;;;3.00;1.33;;;28.90;99.90;;;;;;4952670;29;20188;-57
2022/07/11 10:26:05;;;;;;;2.63;1.10;;;29.10;99.90;;;;;;4953065;28;20193;-58
2022/07/11 10:28:52;;;;;;;5.55;1.30;;;29.40;99.90;;;;;;4952609;28;20173;-58
2022/07/11 10:31:22;;;;;;;3.47;1.30;;;29.30;99.90;;;;;;4952625;28;20549;-57
2022/07/11 10:34:10;;;;;;;3.17;1.50;;;29.40;99.90;;;;;;4952624;28;20173;-57
2022/07/11 10:36:41;;;;;;;3.42;1.38;;;29.70;99.90;;;;;;4952569;28;20188;-58
2022/07/11 10:39:24;;;;;;;2.85;1.50;;;30.00;99.90;;;;;;4952374;28;20671;-58
2022/07/11 10:41:50;;;;;;;4.07;1.38;;;29.60;99.90;;;;;;4952580;28;20680;-58
2022/07/11 10:44:17;;;;;;;8.75;2.03;;;29.60;99.90;;;;;;4952422;28;20734;-58
2022/07/11 10:46:43;;;;;;;6.05;1.17;;;29.70;99.90;;;;;;4952411;28;20222;-58
2022/07/11 10:49:15;;;;;;;2.95;1.20;;;29.90;99.90;;;;;;4952535;28;20690;-58
2022/07/11 10:51:50;;;;;;;3.33;1.27;;;29.40;99.90;;;;;;4955254;28;20176;-58
2022/07/11 10:54:26;;;;;;;5.07;1.15;;;29.80;99.90;;;;;;4956156;28;20274;-58
2022/07/11 10:57:15;;;;;;;2.80;1.02;;;29.90;99.90;;;;;;4956083;28;20235;-58
2022/07/11 10:59:59;;;;;;;2.08;1.05;;;29.80;99.90;;;;;;4955933;28;20208;-58
2022/07/11 11:02:26;;;;;;;5.47;1.30;;;29.70;99.90;;;;;;4955898;28;20184;-58
2022/07/11 11:05:00;;;;;;;5.95;1.30;;;30.00;99.90;;;;;;4955940;28;20619;-56
2022/07/11 11:07:35;;;;;;;3.45;1.40;;;29.70;99.90;;;;;;4955928;29;20659;-56
2022/07/11 11:10:06;;;;;;;3.15;0.90;;;29.90;99.90;;;;;;4955792;28;20184;-56
2022/07/11 11:13:07;;;;;;;2.75;1.20;;;29.90;99.90;;;;;;4955595;28;20216;-58
2022/07/11 11:15:41;;;;;;;2.47;1.00;;;30.00;99.90;;;;;;4955750;28;20181;-59
2022/07/11 11:18:36;;;;;;;4.85;1.20;;;29.70;99.90;;;;;;4955694;28;20555;-56
2022/07/11 11:21:12;;;;;;;2.78;1.20;;;29.50;99.90;;;;;;4955588;28;20192;-57
2022/07/11 11:23:39;;;;;;;4.88;1.27;;;29.70;99.90;;;;;;4955566;28;20705;-58
2022/07/11 11:26:13;;;;;;;5.35;1.15;;;30.20;99.90;;;;;;4955314;28;20192;-56
2022/07/11 11:28:55;;;;;;;5.30;1.30;;;30.20;99.90;;;;;;4955517;28;20627;-57
2022/07/11 11:31:21;;;;;;;4.47;1.30;;;30.30;99.90;;;;;;4955540;28;20191;-56
2022/07/11 11:33:48;;;;;;;7.00;1.15;;;30.10;99.90;;;;;;4955424;28;20179;-57
2022/07/11 11:36:17;;;;;;;2.92;1.08;;;30.60;99.90;;;;;;4955334;28;20655;-57
2022/07/11 11:38:44;;;;;;;3.28;1.15;;;30.40;99.90;;;;;;4955277;28;20179;-57
2022/07/11 11:41:13;;;;;;;4.20;1.52;;;30.60;99.90;;;;;;4955079;28;20670;-57
2022/07/11 11:43:47;;;;;;;2.20;1.13;;;31.30;99.90;;;;;;4955159;28;20240;-56
2022/07/11 11:46:13;;;;;;;3.15;1.30;;;31.30;99.90;;;;;;4955156;28;20510;-57
2022/07/11 11:48:45;;;;;;;11.20;1.60;;;31.00;99.90;;;;;;4955057;28;20243;-57
2022/07/11 11:51:16;;;;;;;4.57;1.42;;;31.40;99.90;;;;;;4954967;28;20193;-58
2022/07/11 11:53:48;;;;;;;6.38;1.40;;;31.80;99.90;;;;;;4955017;28;20244;-57
2022/07/11 11:56:29;;;;;;;2.60;1.23;;;31.50;99.90;;;;;;4954929;28;20232;-57
2022/07/11 11:59:07;;;;;;;5.28;1.25;;;31.90;99.90;;;;;;4954711;28;20203;-57
2022/07/11 12:01:34;;;;;;;6.15;1.35;;;32.10;99.90;;;;;;4954313;28;20184;-57
2022/07/11 12:04:09;;;;;;;1.98;1.17;;;32.60;99.90;;;;;;4954583;28;20204;-57
2022/07/11 12:06:40;;;;;;;4.53;1.48;;;33.10;99.90;;;;;;4954906;28;20191;-57
2022/07/11 12:09:11;;;;;;;7.38;1.50;;;33.20;99.90;;;;;;4954748;28;20188;-58
2022/07/11 12:11:38;;;;;;;4.68;1.35;;;32.40;99.90;;;;;;4952487;28;20224;-57
2022/07/11 12:14:06;;;;;;;2.13;1.20;;;31.50;99.90;;;;;;4954677;28;20528;-56
2022/07/11 12:16:43;;;;;;;3.30;1.40;;;32.40;99.90;;;;;;4954653;28;20252;-57
2022/07/11 12:19:24;;;;;;;5.43;1.42;;;32.50;99.90;;;;;;4954681;28;20208;-57
2022/07/11 12:21:56;;;;;;;5.53;1.20;;;32.90;99.90;;;;;;4954434;28;20544;-57
2022/07/11 12:24:29;;;;;;;2.70;1.40;;;33.40;99.90;;;;;;4954960;28;20224;-57
2022/07/11 12:26:56;;;;;;;4.43;1.25;;;33.90;99.90;;;;;;4954425;28;20184;-57
2022/07/11 12:29:23;;;;;;;3.38;1.10;;;34.00;99.90;;;;;;4954407;28;20251;-57
2022/07/11 12:31:53;;;;;;;1.50;1.15;;;34.20;99.90;;;;;;4954421;28;20169;-57
2022/07/11 12:34:32;;;;;;;5.53;1.50;;;34.50;99.90;;;;;;4954474;28;20199;-57
2022/07/11 12:37:09;;;;;;;2.95;1.38;;;34.20;99.90;;;;;;4954212;28;20173;-57
2022/07/11 12:39:40;;;;;;;3.30;1.30;;;33.30;99.90;;;;;;4954291;28;20251;-57
2022/07/11 12:42:25;;;;;;;3.75;1.55;;;32.90;99.90;;;;;;4952927;29;20176;-57
2022/07/11 12:45:17;;;;;;;4.10;1.08;;;33.50;99.90;;;;;;4954237;28;20181;-57
2022/07/11 12:47:45;;;;;;;3.60;1.40;;;33.50;99.90;;;;;;4953073;29;20189;-57
2022/07/11 12:50:19;;;;;;;4.20;1.38;;;34.20;99.90;;;;;;4954108;28;20260;-57
2022/07/11 12:52:48;;;;;;;1.67;1.08;;;34.80;99.90;;;;;;4954165;28;20196;-57
2022/07/11 12:55:23;;;;;;;4.53;1.05;;;35.60;99.90;;;;;;4954092;29;20190;-57
2022/07/11 12:58:13;;;;;;;2.80;1.20;;;35.90;99.90;;;;;;4953944;28;20172;-57
2022/07/11 13:00:57;;;;;;;3.65;1.10;;;34.50;99.90;;;;;;4953877;28;20216;-58